Airfield :
LOGIN :

Register | Disclaimer

   EN    FR    IT 

 










Legend :    VFR   Marginal VFR   IFR   Intensive IFR   Very Intensive IFR
Visi :
Ceiling :
>= 8 km
>= 3000ft
5 to 8 km
1000 to 3000 ft
1500m to 5 km
500 to 1000 ft
800 to 1500m
200 to 500 ft
< 800m
< 200 ft
Symbols :   Thunderstorms  Fog  Heavy snow  Heavy precipitations  Wind > 20 kt
SIGMETs :     Misc.  Thunderstorms  Icing  Turbulence  Mountain Waves  Volcanic Ashes






- Airport Elevation : 511 ft
- IATA code : LHA


EDTL - Lahr Schwarzwald

CURRENT METAR :
  • 211420Z VRB02KT CAVOK 15/12 Q1020

EXPIRED METARs :
  • 211350Z VRB02KT CAVOK 15/13 Q1020
  • 211320Z 22003KT CAVOK 15/12 Q1020
  • 211250Z 24005KT CAVOK 15/12 Q1020
  • 211220Z VRB02KT CAVOK 15/12 Q1020
  • 211150Z 23004KT 190V270 9999 -RA FEW042 BKN061 14/12 Q1020

TAF TAF EDTL
Valid from the 21 at 15:00 until the 22 at 00:00 UTC


211400Z 2115/2124 22005KT 9999 SCT035 BKN045
BECMG 2116/2118 02004KT
TEMPO 2117/2122 4000 RA
PROB40
TEMPO 2118/2124 BKN012



MET'MAP, your aeronautical weather chart ! - Copyright ORBIFLY December 2007 - Disclaimer

ORBIFLY MET'MAP TEAM :

Programming & Development : Alexandra Zaïnal
Concept & Development : Baudouin d'Aumeries
Co-Development & Prog : Marc-Olivier Méhu
Technical & hardware support : Manuel Goepfert

Contact : metmap@orbifly.com




SOURCES & CREDITS :

   NOAA